Tiempo atmosférico en la estación meteorológica de San Sebastián De La Gomera, Santa Cruz de Tenerife (15 m.)



Fecha
DESCASC
Temp. máxima en grados centígrados (hora)
DESCASC
Temp. mínima en grados centígrados (hora)
DESCASC
Temp. media en grados centígrados
DESCASC
Racha de viento máxima en m/sg (hora)
DESCASC
Velocidad máxima media en intervalos de 10 minutos(hora)
DESCASC
Precipitaciones diarias en mm
DESCASC
Precipitaciones de 00:00 a 06:00 en mm
DESCASC
Precipitaciones de 06:00 a 12:00 en mm
DESCASC
Precipitaciones de 12:00 a 18:00 en mm
DESCASC
Precipitaciones de 18:00 a 24:00 en mm
DESCASC
22-11-2020 27.4 (10:10) 21 (03:50) 24.2 6.11 (11:50) 3.61 (02:20) 0 0 0 0 0
21-11-2020 26.1 (13:30) 21.9 (05:40) 24 7.78 (11:10) 3.89 (11:10) 0 0 0 0 0
20-11-2020 26.9 (14:20) 18.5 (05:30) 22.7 6.39 (02:30) 3.61 (16:50) 0 0 0 0 0
19-11-2020 25.8 (11:00) 20.8 (00:00) 23.3 12.22 (07:20) 6.39 (00:10) 0 0 0 0 0
18-11-2020 29.3 (15:50) 22.9 (00:00) 26.1 11.67 (13:00) 6.11 (18:40) 0 0 0 0 0
17-11-2020 30.2 (12:30) 22.4 (00:00) 26.3 5.83 (11:30) 3.06 (16:40) 0 0 0 0 0
16-11-2020 29.8 (14:20) 19.4 (00:00) 24.6 4.72 (21:00) 3.06 (12:10) 0 0 0 0 0
15-11-2020 26.2 (14:30) 20 (00:00) 23.1 11.11 (11:30) 6.11 (12:00) 0 0 0 0 0
14-11-2020 24 (11:00) 20.4 (00:00) 22.2 11.94 (12:30) 7.78 (13:10) 0 0 0 0 0
13-11-2020 24.4 (14:30) 20.6 (00:00) 22.5 8.06 (15:00) 4.17 (13:30) 0 0 0 0 0
12-11-2020 23.8 (13:10) 19.9 (00:00) 21.8 7.5 (12:00) 5 (10:30) 0 0 0 0 0
11-11-2020 23.3 (16:50) 18.7 (00:00) 21 10.28 (20:10) 5.28 (20:20) 0 0 0 0 0
10-11-2020 25.5 (13:20) 19.2 (00:00) 22.4 8.33 (16:30) 6.11 (16:30) 0 0 0 0 0
09-11-2020 24.7 (14:40) 19.5 (00:00) 22.1 10 (09:40) 4.17 (14:10) 0 0 0 0 0
08-11-2020 25.2 (12:50) 18.1 (00:00) 21.7 9.17 (12:30) 4.17 (14:00) 0 0 0 0 0
07-11-2020 25 (15:30) 17.7 (00:00) 21.4 5.56 (07:10) 3.89 (13:40) 0 0 0 0 0
06-11-2020 24.6 (12:20) 18.7 (00:00) 21.7 8.61 (03:30) 4.17 (04:00) 0.1 0 0.1 0 0
05-11-2020 24.9 (12:40) 17.4 (00:00) 21.1 10.28 (00:10) 4.72 (00:20) 0 0 0 0 0
04-11-2020 23.2 (12:40) 19.6 (00:00) 21.4 15 (13:10) 6.39 (14:10) 0 0 0 0 0
03-11-2020 25 (11:10) 22 (00:00) 23.5 15.83 (05:40) 7.5 (19:20) 0 0 0 0 0
02-11-2020 28.2 (14:30) 22.3 (00:00) 25.3 17.5 (16:10) 8.89 (18:30) 0 0 0 0 0
01-11-2020 30 (15:50) 21.3 (00:00) 25.6 10.83 (01:40) 5 (22:50) 0 0 0 0 0
31-10-2020 30.6 (15:40) 19.8 (00:00) 25.2 7.22 (11:40) 3.33 (11:30) 0 0 0 0 0
30-10-2020 25.7 (13:30) 21.3 (00:00) 23.5 13.06 (13:30) 5.56 (17:10) 0 0 0 0 0
29-10-2020 25.7 (13:00) 21.3 (00:00) 23.5 11.94 (23:40) 5.83 (21:20) 0 0 0 0 0
28-10-2020 24.7 (13:10) 21.1 (00:00) 22.9 12.5 (11:10) 5 (15:40) 0 0 0 0 0
27-10-2020 25.5 (14:40) 21.4 (00:00) 23.4 12.22 (12:40) 5.28 (05:50) 0 0 0 0 0
26-10-2020 25.2 (14:40) 21.1 (00:00) 23.2 15.28 (11:40) 5.56 (09:20) 0 0 0 0 0

Gráficas

Temp. máximas Temp. mínimas Temp. medias Precipitaciones Rachas de viento máximas Velocidades máximas media en intervalos de 10 minutos

Datos horarios

Fecha y hora oficial Temperatura (ºC) Velocidad del viento (km/h) Dirección del viento Racha (km/h) Dirección de racha Precipitación (mm) Presión (hPa) Tendencia (hPa) Humedad (%)
2020-11-24 23:00:00 21.1 8 Noroeste 15 Norte 0 1020.8 0.3 41
2020-11-24 22:00:00 21.6 5 Noroeste 17 Norte 0 1021.1 0.8 42
2020-11-24 21:00:00 21.4 11 Noroeste 19 Noroeste 0 1021 1 42
2020-11-24 20:00:00 21.4 6 Norte 10 Norte 0 1020.5 1.2 58
2020-11-24 19:00:00 21.9 0 Calma 8 Sur 0 1020.3 1 66
2020-11-24 18:00:00 22.7 5 Sudeste 9 Sudeste 0 1020 0.7 63
2020-11-24 17:00:00 22.9 8 Sur 13 Sur 0 1019.3 -0.7 68
2020-11-24 16:00:00 23.7 8 Sudeste 11 Sudeste 0 1019.3 -- 66
2020-11-24 15:00:00 23.7 8 Sur 14 Sur 0 1019.3 -- 66
2020-11-24 14:00:00 23.5 8 Sudeste 13 Sur 0 1020 -- 69
2020-11-24 13:00:00 24.5 7 Sur 12 Sur 0 1020.7 -- 77
2020-11-24 12:00:00 24.4 4 Sur 9 Sur 0 1021.7 -- 73
2020-11-24 11:00:00 23.5 7 Sur 15 Sudoeste 0 1021.8 -- 71
2020-11-24 10:00:00 23.7 6 Sudoeste 16 Sudoeste 0 1021.4 -- 61
2020-11-24 09:00:00 22.4 0 Calma 12 Nordeste 0 1020.6 -- 47
2020-11-24 08:00:00 21.8 9 Noroeste 15 Noroeste 0 1019.9 -- 45
2020-11-24 07:00:00 22.1 8 Norte 15 Norte 0 1019.4 -- 44
2020-11-24 06:00:00 21.9 9 Norte 18 Noroeste 0 1018.8 -- 44
2020-11-24 05:00:00 22 10 Noroeste 17 Noroeste 0 1018.7 -- 43
2020-11-24 04:00:00 21.5 10 Noroeste 18 Noroeste 0 1019.2 -- 44
2020-11-24 03:00:00 21.8 10 Noroeste 18 Noroeste 0 1019.4 -- 44
2020-11-24 02:00:00 21.4 9 Noroeste 18 Noroeste 0 1019.5 -- 45
2020-11-24 01:00:00 21.2 9 Norte 17 Noroeste 0 1019.7 -- 47
2020-11-24 00:00:00 21 10 Norte 17 Noroeste 0 1020.3 -- 50
2020-11-23 23:00:00 20.5 8 Noroeste 17 Norte 0 1020.4 -- 62
2020-11-23 22:00:00 20.6 8 Noroeste 17 Noroeste 0 1020.3 -- 68
2020-11-23 21:00:00 21.1 7 Noroeste 12 Noroeste 0 1020.2 -- 75
2020-11-23 20:00:00 21.7 4 Sudoeste 8 Sudoeste 0 1019.9 -- 78
2020-11-23 19:00:00 22.5 4 Sur 13 Sur 0 1019.2 -- 78
2020-11-23 18:00:00 22.7 10 Sur 16 Sur 0 1018.8 -- 76
2020-11-23 17:00:00 23.6 9 Sur 19 Sudeste 0 1018.5 -- 72
2020-11-23 16:00:00 23.7 10 Sur 22 Sur 0 1018.4 -- 70
2020-11-23 15:00:00 24.5 13 Sudeste 24 Sudeste 0 1018.3 -- 67
2020-11-23 14:00:00 24.8 10 Sur 17 Sur 0 1018.7 -- 66
2020-11-23 13:00:00 25 11 Sur 19 Sudeste 0 1019.6 -- 62
2020-11-23 12:00:00 25.4 8 Sudeste 17 Sur 0 1020.2 -- 56
2020-11-23 11:00:00 25.5 7 Sur 18 Sur 0 1020.4 -- 55
2020-11-23 10:00:00 25.5 6 Sudeste 16 Sur 0 1019.9 -- 53
2020-11-23 09:00:00 23.5 2 Nordeste 8 Norte 0 1019.3 -- 57
2020-11-23 08:00:00 21.5 4 Norte 14 Noroeste 0 1018.5 -- 51
2020-11-23 07:00:00 21 6 Norte 14 Noroeste 0 1017.3 -- 49
2020-11-23 06:00:00 21.4 8 Noroeste 18 Noroeste 0 1016.9 -- 46
2020-11-23 05:00:00 21.7 10 Norte 21 Norte 0 1017 -- 46
2020-11-23 04:00:00 21.4 12 Noroeste 22 Noroeste 0 1017.3 -- 47
2020-11-23 03:00:00 21.9 8 Noroeste 17 Noroeste 0 1017.5 -- 47
2020-11-23 02:00:00 22 9 Noroeste 16 Norte 0 1017.8 -- 49
2020-11-23 01:00:00 22.5 3 Noroeste 15 Nordeste 0 1018.2 -- 50
2020-11-23 00:00:00 22 8 Noroeste 21 Noroeste 0 1018.5 -- 51
2020-11-22 23:00:00 22.6 7 Noroeste 12 Norte 0 1018.6 -- 50
2020-11-22 22:00:00 22.9 7 Norte 11 Norte 0 1018.6 -- 49
2020-11-22 21:00:00 23 5 Noroeste 12 Norte 0 1018.2 -- 51
2020-11-22 20:00:00 22.6 6 Noroeste 14 Oeste 0 1018.1 -- 65
2020-11-22 19:00:00 23 0 Calma 6 Sur 0 1017.7 -- 65
2020-11-22 18:00:00 23.1 3 Sudeste 11 Sur 0 1017.4 -- 82
2020-11-22 17:00:00 23.8 4 Sudeste 15 Sur 0 1017.2 -- 75
2020-11-22 16:00:00 24.3 9 Sur 15 Sur 0 1017 -- 72
2020-11-22 15:00:00 24.5 10 Sur 19 Sur 0 1017 -- 71
2020-11-22 14:00:00 24.8 9 Sur 21 Sur 0 1017.2 -- 66
2020-11-22 13:00:00 26.3 6 Sur 17 Sur 0 1017.6 -- 52
2020-11-22 12:00:00 26.2 8 Sur 22 Sur 0 1018.2 -- 53
2020-11-22 11:00:00 25.1 9 Sur 14 Sur 0 1018.4 -- 54
2020-11-22 10:00:00 26.7 0 Calma 12 Noroeste 0 1018.2 -- 46
2020-11-22 09:00:00 23.2 6 Norte 15 Noroeste 0 1017.7 -- 48
2020-11-22 08:00:00 21.6 8 Noroeste 20 Noroeste 0 1017.2 -- 50
2020-11-22 07:00:00 21.3 10 Norte 20 Noroeste 0 1016.7 -- 50
2020-11-22 06:00:00 21.6 8 Norte 18 Noroeste 0 1016.5 -- 50
2020-11-22 05:00:00 21.4 9 Norte 19 Noroeste 0 1016.1 -- 52
2020-11-22 04:00:00 21.5 10 Noroeste 18 Noroeste 0 1015.8 -- 53
2020-11-22 03:00:00 21.6 12 Noroeste 19 Noroeste 0 1016.2 -- 54
2020-11-22 02:00:00 21.7 11 Noroeste 18 Noroeste 0 1016.1 -- 55
2020-11-22 01:00:00 22 6 Norte 13 Noroeste 0 1016.3 -- 56
2020-11-22 00:00:00 22.2 4 Norte 18 Noroeste 0 1016.6 -- 53
2020-11-21 23:00:00 22 9 Noroeste 15 Noroeste 0 1016.8 -- 53
2020-11-21 22:00:00 22 8 Noroeste 13 Noroeste 0 1016.9 -- 54
2020-11-21 21:00:00 22.9 5 Norte 12 Oeste 0 1016.9 -- 56
2020-11-21 20:00:00 23 5 Oeste 12 Oeste 0 1016.7 -- 61
2020-11-21 19:00:00 23.4 2 Sudoeste 12 Sudoeste 0 1016.1 -- 61
2020-11-21 18:00:00 24 5 Sur 21 Sudoeste 0 1016 -- 59
2020-11-21 17:00:00 25 5 Sur 24 Sur 0 1015.6 -- 60
2020-11-21 16:00:00 24.7 11 Sur 23 Sudoeste 0 1015.5 -- 62
2020-11-21 15:00:00 25.2 11 Sur 25 Sur 0 1015.4 -- 56
2020-11-21 14:00:00 25.8 11 Sur 26 Sur 0 1015.9 -- 55
2020-11-21 13:00:00 25.1 11 Sur 24 Sur 0 1017 -- 62
2020-11-21 12:00:00 25 9 Sur 28 Sur 0 1017.9 -- 65
2020-11-21 11:00:00 24.5 11 Sur 21 Sur 0 1018.6 -- 63
2020-11-21 10:00:00 25 6 Sur 16 Sur 0 1018.5 -- 59
2020-11-21 09:00:00 24.3 3 Sudoeste 15 Oeste 0 1017.9 -- 59
2020-11-21 08:00:00 23.6 3 Sudoeste 15 Sudeste 0 1017.4 -- 56
2020-11-21 07:00:00 23.3 5 Oeste 17 Oeste 0 1016.6 -- 49
2020-11-21 06:00:00 22.8 4 Noroeste 15 Noroeste 0 1015.9 -- 45
2020-11-21 05:00:00 22.4 5 Norte 19 Noroeste 0 1015.8 -- 44
2020-11-21 04:00:00 22.7 9 Noroeste 21 Noroeste 0 1015.7 -- 47
2020-11-21 03:00:00 22.5 10 Noroeste 18 Norte 0 1015.9 -- 48
2020-11-21 02:00:00 22.3 9 Noroeste 19 Noroeste 0 1016.3 -- 49
2020-11-21 01:00:00 22.4 9 Noroeste 17 Noroeste 0 1016.7 -- 49
2020-11-21 00:00:00 22.3 9 Noroeste 15 Noroeste 0 1017.3 -- 50
2020-11-20 23:00:00 22.3 7 Norte 15 Noroeste 0 1017.6 -- 53
2020-11-20 22:00:00 21.7 8 Noroeste 14 Noroeste 0 1017.6 -- 59
2020-11-20 21:00:00 22.2 7 Noroeste 12 Noroeste 0 1017.4 -- 63
2020-11-20 20:00:00 23.2 3 Sudoeste 11 Sudoeste 0 1017.4 -- 67
2020-11-20 19:00:00 23.1 2 Sudoeste 12 Sur 0 1016.7 -- 76
2020-11-20 18:00:00 23.6 9 Sur 18 Sur 0 1016.4 -- 77
2020-11-20 17:00:00 25.5 8 Sur 23 Sur 0 1015.9 -- 60
2020-11-20 16:00:00 26.4 7 Sur 18 Sur 0 1015.9 -- 54
2020-11-20 15:00:00 26.1 5 Sur 22 Sur 0 1015.9 -- 58
2020-11-20 14:00:00 26.3 4 Sudoeste 21 Sur 0 1016.2 -- 58
2020-11-20 13:00:00 25.2 7 Sur 19 Sur 0 1017 -- 67
2020-11-20 12:00:00 25.1 9 Sur 19 Sur 0 1017.7 -- 68
2020-11-20 11:00:00 24.5 5 Este 13 Sur 0 1018 -- 80
2020-11-20 10:00:00 23.5 7 Noroeste 18 Noroeste 0 1017.6 -- 76
2020-11-20 09:00:00 22 6 Sudoeste 21 Sudoeste 0 1017.8 -- 93
2020-11-20 08:00:00 18.8 5 Noroeste 12 Sur 0 1017.3 -- 89
2020-11-20 07:00:00 19 3 Norte 12 Noroeste 0 1016.5 -- 83
2020-11-20 06:00:00 19.3 8 Noroeste 16 Norte 0 1015.9 -- 83
2020-11-20 05:00:00 19.5 4 Noroeste 13 Noroeste 0 1016.5 -- 81
2020-11-20 04:00:00 19 6 Noroeste 11 Noroeste 0 1016.5 -- 86
2020-11-20 03:00:00 19.9 7 Noroeste 23 Noroeste 0 1016.8 -- 83
2020-11-20 02:00:00 19.9 7 Noroeste 14 Noroeste 0 1017.5 -- 86
2020-11-20 01:00:00 20.4 6 Noroeste 12 Noroeste 0 1018 -- 88
2020-11-20 00:00:00 20.9 7 Noroeste 11 Noroeste 0 1018.7 -- 90
2020-11-19 23:00:00 21 6 Noroeste 10 Norte 0 1019.1 -- 91
2020-11-19 22:00:00 21.6 4 Noroeste 8 Noroeste 0 1018.9 -- 92
2020-11-19 21:00:00 22.4 0 Calma 10 Este 0 1018.6 -- 92
2020-11-19 20:00:00 22.5 4 Nordeste 17 Sur 0 1018.4 -- 91
2020-11-19 19:00:00 22.6 5 Sudoeste 25 Sur 0 1017.9 -- 91
2020-11-19 18:00:00 22.6 12 Sur 26 Sur 0 1017.7 -- 92
2020-11-19 17:00:00 22.9 19 Sur 30 Sur 0 1017.8 -- 91
2020-11-19 16:00:00 24.1 12 Sur 34 Sur 0 1017.5 -- 84
2020-11-19 15:00:00 23.6 17 Sur 37 Sur 0 1017.7 -- 87
2020-11-19 14:00:00 24.7 15 Sur 34 Sur 0 1018.2 -- 84
2020-11-19 13:00:00 24.2 6 Sudeste 24 Sur 0 1019.3 -- 84
2020-11-19 12:00:00 23.9 18 Sur 27 Sur 0 1020.1 -- 86
2020-11-19 11:00:00 24.9 7 Norte 27 Nordeste 0 1020.4 -- 72
2020-11-19 10:00:00 23.2 15 Noroeste 37 Noroeste 0 1020.8 -- 80
2020-11-19 09:00:00 22.9 14 Norte 43 Norte 0 1020.3 -- 82
2020-11-19 08:00:00 22.1 20 Norte 44 Noroeste 0 1020 -- 87
2020-11-19 07:00:00 22.1 15 Norte 35 Norte 0 1019.7 -- 84
2020-11-19 06:00:00 22.2 14 Noroeste 32 Norte 0 1019.1 -- 82
2020-11-19 05:00:00 22.2 15 Norte 35 Noroeste 0 1019.2 -- 82
2020-11-19 04:00:00 22.3 18 Noroeste 39 Noroeste 0 1019.3 -- 83
2020-11-19 03:00:00 22.3 15 Noroeste 37 Noroeste 0 1019.5 -- 83
2020-11-19 02:00:00 22.5 17 Norte 38 Noroeste 0 1020 -- 81
2020-11-19 01:00:00 22.7 19 Norte 44 Norte 0 1020.4 -- 80
2020-11-19 00:00:00 23 21 Norte 39 Norte 0 1020.9 -- 80
2020-11-18 23:00:00 23.1 20 Norte 41 Noroeste 0 1021.3 -- 81
2020-11-18 22:00:00 23.4 18 Norte 38 Norte 0 1021.1 -- 78
2020-11-18 21:00:00 24 18 Norte 33 Norte 0 1020.9 -- 69
2020-11-18 20:00:00 24.3 14 Noroeste 40 Noroeste 0 1020.6 -- 66
2020-11-18 19:00:00 23.8 21 Noroeste 39 Noroeste 0 1020.6 -- 75
2020-11-18 18:00:00 25.4 16 Noroeste 35 Noroeste 0 1020.1 -- 55
2020-11-18 17:00:00 28.6 -- -- 23 Norte 0 1019.6 -- 52
2020-11-18 16:00:00 29 -- -- 37 Norte 0 1019.6 -- 56
2020-11-18 15:00:00 28 20 Norte 35 Norte 0 1019.6 -- 59
2020-11-18 14:00:00 27.7 17 Nordeste 37 Nordeste 0 1019.6 -- 66
2020-11-18 13:00:00 28.1 19 Nordeste 42 Nordeste 0 1020.5 -- 63
2020-11-18 12:00:00 27.5 8 Nordeste 22 Nordeste 0 1021.1 -- 65
2020-11-18 11:00:00 27 4 Sur 12 Sur 0 1021.3 -- 63
2020-11-18 10:00:00 26.7 5 Sudeste 12 Sur 0 1021.4 -- 68
2020-11-18 09:00:00 26.9 0 Calma 21 Noroeste 0 1020.8 -- 47
2020-11-18 08:00:00 26.4 12 Noroeste 24 Noroeste 0 1020.3 -- 37
2020-11-18 07:00:00 25.7 10 Noroeste 22 Noroeste 0 1019.6 -- 38
2020-11-18 06:00:00 26.4 11 Noroeste 22 Noroeste 0 1019.4 -- 38
2020-11-18 05:00:00 26.4 11 Noroeste 23 Noroeste 0 1019.4 -- 38
2020-11-18 04:00:00 26.6 11 Noroeste 26 Noroeste 0 1019.3 -- 38
2020-11-18 03:00:00 26.2 12 Noroeste 19 Noroeste 0 1019.4 -- 41
2020-11-18 02:00:00 23.4 0 Calma 11 Sudeste 0 1019.8 -- 74
2020-11-18 01:00:00 25.4 3 Noroeste 17 Noroeste 0 1019.9 -- 41
2020-11-18 00:00:00 24.5 9 Noroeste 17 Noroeste 0 1020.1 -- 41
2020-11-17 23:00:00 24 7 Noroeste 11 Noroeste 0 1020.4 -- 42
2020-11-17 22:00:00 24.3 4 Norte 11 Noroeste 0 1020.4 -- 42
2020-11-17 21:00:00 24 7 Noroeste 10 Noroeste 0 1020.3 -- 44
2020-11-17 20:00:00 24.8 3 Noroeste 6 Noroeste 0 1020 -- 44
2020-11-17 19:00:00 25.8 0 Calma 12 Sur 0 1019.4 -- 47
2020-11-17 18:00:00 27.2 10 Sur 14 Sur 0 1018.8 -- 41
2020-11-17 17:00:00 28.3 10 Sur 15 Norte 0 1018.7 -- 40
2020-11-17 16:00:00 28.4 10 Este 15 Norte 0 1018.3 -- 40
2020-11-17 15:00:00 29.1 9 Sur 13 Sur 0 1018.2 -- 38
2020-11-17 14:00:00 29.3 8 Sur 13 Sur 0 1018.9 -- 39
2020-11-17 13:00:00 29.3 8 Sur 18 Sudeste 0 1019.6 -- 40
2020-11-17 12:00:00 29 8 Sur 21 Sur 0 1020.4 -- 42
2020-11-17 11:00:00 28.8 7 Sur 17 Sudeste 0 1020.5 -- 45
2020-11-17 10:00:00 25.9 2 Sudeste 10 Sur 0 1020.6 -- 78
2020-11-17 09:00:00 25.7 8 Norte 18 Noroeste 0 1019.8 -- 41
2020-11-17 08:00:00 23.5 9 Noroeste 14 Noroeste 0 1019.2 -- 43
2020-11-17 07:00:00 23 3 Noroeste 6 Norte 0 1018.7 -- 43
2020-11-17 06:00:00 23.4 0 Calma 7 Norte 0 1018.4 -- 42
2020-11-17 05:00:00 23.9 3 Noroeste 10 Noroeste 0 1018.2 -- 41
2020-11-17 04:00:00 24.1 2 Noroeste 15 Norte 0 1018 -- 41
2020-11-17 03:00:00 24.3 6 Noroeste 16 Noroeste 0 1018 -- 41
2020-11-17 02:00:00 23.9 9 Noroeste 15 Noroeste 0 1018.2 -- 41
2020-11-17 01:00:00 23.6 10 Noroeste 15 Noroeste 0 1018.7 -- 41
2020-11-17 00:00:00 23.6 6 Noroeste 16 Noroeste 0 1019.1 -- 42
2020-11-16 23:00:00 24 9 Noroeste 15 Noroeste 0 1019.4 -- 42
2020-11-16 22:00:00 24 7 Norte 14 Noroeste 0 1019.3 -- 43
2020-11-16 21:00:00 24.3 9 Noroeste 17 Noroeste 0 1019.1 -- 44
2020-11-16 20:00:00 24.8 9 Noroeste 15 Noroeste 0 1018.8 -- 45
2020-11-16 19:00:00 25.4 6 Noroeste 9 Noroeste 0 1018.5 -- 47
2020-11-16 18:00:00 26.3 0 Calma 6 Norte 0 1018.2 -- 54
2020-11-16 17:00:00 29.1 0 Calma 8 Norte 0 1018.2 -- 45
2020-11-16 16:00:00 28.1 5 Este 13 Sudeste 0 1018.1 -- 51
2020-11-16 15:00:00 27.6 4 Sur -- -- -- 1018.1 -- 53
2020-11-16 14:00:00 29.6 0 Calma 11 Sur 0 1018.5 -- 43
2020-11-16 13:00:00 27.8 4 Sudeste 14 Sur 0 1019.1 -- 51
2020-11-16 12:00:00 25.5 4 Sudeste 12 Este 0 1020 -- 87
2020-11-16 11:00:00 25.7 4 Este 12 Sur 0 1020.2 -- 76
2020-11-16 10:00:00 24.2 3 Sudeste 7 Sur 0 1020.1 -- 83
2020-11-16 09:00:00 23 4 Norte 12 Noroeste 0 1019.5 -- 57
2020-11-16 08:00:00 20.3 8 Noroeste 13 Noroeste 0 1018.9 -- 67
2020-11-16 07:00:00 20.1 7 Noroeste 10 Noroeste 0 1018.4 -- 67
2020-11-16 06:00:00 20.4 5 Norte 12 Noroeste 0 1017.7 -- 66
2020-11-16 05:00:00 20.4 3 Noroeste 7 Noroeste 0 1017.7 -- 71
2020-11-16 04:00:00 21.3 4 Noroeste 12 Noroeste 0 1017.5 -- 71
2020-11-16 03:00:00 21.3 3 Norte 11 Noroeste 0 1017.8 -- 73
2020-11-16 02:00:00 21.8 7 Noroeste 14 Norte 0 1017.8 -- 74
2020-11-16 01:00:00 21.4 6 Noroeste 11 Noroeste 0 1018.1 -- 77
2020-11-16 00:00:00 21.8 6 Noroeste 13 Noroeste 0 1018.3 -- 78
2020-11-15 23:00:00 21.9 0 Calma 7 Norte 0 1018.5 -- 86
2020-11-15 22:00:00 22.2 4 Norte 12 Noroeste 0 1018.1 -- 82
2020-11-15 21:00:00 22.3 0 Calma 17 Nordeste 0 1018 -- 93
2020-11-15 20:00:00 23 5 Norte 17 Norte 0 1017.4 -- 92
2020-11-15 19:00:00 23.2 10 Nordeste 18 Nordeste 0 1016.7 -- 92
2020-11-15 18:00:00 23.5 10 Nordeste 25 Este 0 1016.3 -- 92
2020-11-15 17:00:00 23.8 13 Nordeste 29 Nordeste 0 1016 -- 91
2020-11-15 16:00:00 25.4 6 Sudeste 30 Sur 0 1015.9 -- 88
2020-11-15 15:00:00 25.5 7 Este 24 Nordeste 0 1015.8 -- 80
2020-11-15 14:00:00 25.3 8 Nordeste 23 Sur 0 1015.8 -- 82
2020-11-15 13:00:00 23.4 13 Sur 33 Sur 0 1016.5 -- 93
2020-11-15 12:00:00 23.7 22 Sur 40 Sur 0 1016.8 -- 92
2020-11-15 11:00:00 24.9 8 Este 25 Sur 0 1016.8 -- 84
2020-11-15 10:00:00 24.2 3 Nordeste 11 Noroeste 0 1016.6 -- 82
2020-11-15 09:00:00 22.2 5 Norte 11 Norte 0 1016 -- 81
2020-11-15 08:00:00 21.6 7 Noroeste 17 Noroeste 0 1015.5 -- 83
2020-11-15 07:00:00 20.5 10 Noroeste 17 Noroeste 0 1014.6 -- 87
2020-11-15 06:00:00 20.4 7 Noroeste 13 Noroeste 0 1014.4 -- 89
2020-11-15 05:00:00 20.3 8 Noroeste 12 Noroeste 0 1014.2 -- 89
2020-11-15 04:00:00 20.6 4 Norte 12 Norte 0 1014 -- 90
2020-11-15 03:00:00 20.8 3 Norte 15 Norte 0 1014.2 -- 90
2020-11-15 02:00:00 20.6 7 Norte 13 Noroeste 0 1014.8 -- 91
2020-11-15 01:00:00 21 8 Noroeste 19 Noroeste 0 1014.9 -- 91
2020-11-15 00:00:00 20.5 9 Noroeste 14 Noroeste 0 1014.9 -- 92
2020-11-14 23:00:00 20.9 5 Noroeste 10 Sudeste 0 1015.2 -- 92
2020-11-14 22:00:00 21.8 4 Norte 19 Sur 0 1015.2 -- 92
2020-11-14 21:00:00 22.7 5 Sudoeste 32 Sudoeste 0 1015.4 -- 94
2020-11-14 20:00:00 22.9 9 Sur 26 Sudoeste 0 1014.6 -- 92
2020-11-14 19:00:00 22.7 12 Sur 35 Sudoeste 0 1013.8 -- 93
2020-11-14 18:00:00 23 11 Sur 35 Sudoeste 0 1013.9 -- 92
2020-11-14 17:00:00 23.1 16 Sudoeste 38 Sudoeste 0 1013.6 -- 93
2020-11-14 16:00:00 23.2 18 Sur 38 Sur 0 1013.7 -- 94
2020-11-14 15:00:00 23.2 22 Sur 38 Sur 0 1013.8 -- 95
2020-11-14 14:00:00 23.2 23 Sur 40 Sur 0 1014.2 -- 95
2020-11-14 13:00:00 23.4 22 Sur 43 Sur 0 1014.2 -- 95
2020-11-14 12:00:00 23.4 22 Sur 40 Sur 0 1015.1 -- 94
2020-11-14 11:00:00 23.5 13 Sur 28 Sudoeste 0 1015.6 -- 93
2020-11-14 10:00:00 22.9 14 Sur 30 Sudeste 0 1015.3 -- 95
2020-11-14 09:00:00 22.9 11 Sur 25 Sudoeste 0 1014.5 -- 91
2020-11-14 08:00:00 22.4 6 Sudoeste 27 Sur 0 1014.1 -- 93
2020-11-14 07:00:00 22.5 7 Sur 23 Sudoeste 0 1013.6 -- 94
2020-11-14 06:00:00 22.6 9 Sudoeste 22 Sur 0 1013.2 -- 92
2020-11-14 05:00:00 22.7 11 Sudoeste 23 Sudoeste 0 1012.8 -- 90
2020-11-14 04:00:00 22.5 6 Sudoeste 18 Sudoeste 0 1013.2 -- 92
2020-11-14 03:00:00 22.6 11 Sudoeste 20 Sur 0 1013.7 -- 92
2020-11-14 02:00:00 22.4 9 Sudoeste 24 Sur 0 1013.6 -- 92
2020-11-14 01:00:00 22.5 10 Sudoeste 24 Sudoeste 0 1014.1 -- 91
2020-11-14 00:00:00 22.5 9 Sudoeste 24 Sudoeste 0 1014.8 -- 89
2020-11-13 23:00:00 22.3 6 Sudoeste 22 Sudoeste 0 1015.3 -- 93
2020-11-13 22:00:00 22.5 9 Sur 23 Sudoeste 0 1015.8 -- 92
2020-11-13 21:00:00 22.8 10 Sudoeste 23 Sur 0 1015.8 -- 89
2020-11-13 20:00:00 23.2 10 Sur 23 Sur 0 1014.8 -- 79
2020-11-13 19:00:00 23.5 9 Sudoeste 22 Sudoeste 0 1014.5 -- 71
2020-11-13 18:00:00 23.5 8 Sudoeste 17 Sudoeste 0 1014.2 -- 74
2020-11-13 17:00:00 23.3 6 Sudoeste 24 Sudoeste 0 1014.3 -- 78
2020-11-13 16:00:00 23.5 8 Sudoeste 23 Sudoeste 0 1014.8 -- 75
2020-11-13 15:00:00 23.8 11 Sur 29 Sur 0 1014.5 -- 74
2020-11-13 14:00:00 23.7 8 Sur 28 Sur 0 1015.2 -- 81
2020-11-13 13:00:00 22.6 10 Sur 22 Sudoeste 0 1015.8 -- 92
2020-11-13 12:00:00 22.3 11 Sur 25 Sur 0 1016.5 -- 94
2020-11-13 11:00:00 22.3 12 Sur 26 Sur 0 1017 -- 94
2020-11-13 10:00:00 22.4 8 Sur 20 Sur 0 1016.8 -- 94
2020-11-13 09:00:00 22.1 7 Sudoeste 20 Sudoeste 0 1016.4 -- 94
2020-11-13 08:00:00 22 6 Sudoeste 16 Sudoeste 0 1016.5 -- 94
2020-11-13 07:00:00 21 2 Norte 8 Noroeste 0 1016.2 -- 86
2020-11-13 06:00:00 20.9 0 Calma 12 Sudoeste 0 1015.9 -- 94
2020-11-13 05:00:00 22.1 5 Sur 21 Sudoeste 0 1015.7 -- 95
2020-11-13 04:00:00 22.3 9 Sur 27 Sur 0 1015 -- 94
2020-11-13 03:00:00 21.4 5 Noroeste 13 Noroeste 0 1014.8 -- 76
2020-11-13 02:00:00 21.5 3 Norte 10 Noroeste 0 1015.3 -- 84
2020-11-13 01:00:00 21.2 0 Calma 9 Noroeste 0 1015.8 -- 92
2020-11-13 00:00:00 21.8 0 Calma 8 Noroeste 0 1016 -- 93
2020-11-12 23:00:00 22 0 Calma 9 Noroeste 0 1016.2 -- 94
2020-11-12 22:00:00 22.1 0 Calma 4 Noroeste 0 1016 -- 93
2020-11-12 21:00:00 22.4 0 Calma 3 Sudoeste 0 1015.8 -- 93
2020-11-12 20:00:00 22.5 0 Calma 17 Nordeste 0 1015.7 -- 93
2020-11-12 19:00:00 22.3 7 Nordeste 16 Nordeste 0 1015.3 -- 93
2020-11-12 18:00:00 22.4 9 Nordeste 17 Nordeste 0 1015.3 -- 93
2020-11-12 17:00:00 23.3 3 Este 8 Este 0 1015 -- 92
2020-11-12 16:00:00 23.2 3 Este 10 Sudeste 0 1014.6 -- 92
2020-11-12 15:00:00 23 4 Sudeste 12 Sur 0 1014.6 -- 92
2020-11-12 14:00:00 23 8 Sudeste 16 Sur 0 1015.2 -- 92
2020-11-12 13:00:00 23.4 8 Sudeste 26 Sudeste 0 1015.9 -- 90
2020-11-12 12:00:00 22.2 17 Sur 27 Sur 0 1016.2 -- 93
2020-11-12 11:00:00 22.1 14 Sur 23 Sur 0 1016.6 -- 94
2020-11-12 10:00:00 22.1 12 Sur 24 Sur 0 1016.4 -- 94
2020-11-12 09:00:00 22 8 Sur 17 Sur 0 1015.9 -- 94
2020-11-12 08:00:00 20.4 4 Noroeste 11 Noroeste 0 1016.1 -- 88
2020-11-12 07:00:00 20.2 3 Noroeste 11 Noroeste 0 1015 -- 87
2020-11-12 06:00:00 20.6 5 Norte 11 Noroeste 0 1014.4 -- 87
2020-11-12 05:00:00 21 2 Oeste 14 Sur 0 1014.7 -- 90
2020-11-12 04:00:00 21.9 6 Sur 11 Sur 0 1014.8 -- 93
2020-11-12 03:00:00 21.3 7 Noroeste 22 Noroeste 0 1014.7 -- 89
2020-11-12 02:00:00 21.3 8 Noroeste 13 Noroeste 0 1015.3 -- 88
2020-11-12 01:00:00 21.4 4 Norte 13 Norte 0 1015.7 -- 92
2020-11-12 00:00:00 21.7 4 Norte 12 Norte 0 1016.9 -- 89
2020-11-11 23:00:00 21.9 4 Sur 27 Norte 0 1017.3 -- 93
2020-11-11 22:00:00 21.7 18 Norte 30 Norte 0 1017.1 -- 90
2020-11-11 21:00:00 22 15 Norte 37 Norte 0 1016.9 -- 89
2020-11-11 20:00:00 22 14 Norte 27 Norte 0 1016.1 -- 87
2020-11-11 19:00:00 22 10 Sur 32 Noroeste 0 1016.3 -- 92
2020-11-11 18:00:00 22 17 Norte 29 Nordeste 0 1015.2 -- 89
2020-11-11 17:00:00 23.2 3 Noroeste 14 Nordeste 0 1015.1 -- 87
2020-11-11 16:00:00 22.7 4 Sur 14 Sur 0 1015.2 -- 89
2020-11-11 15:00:00 22.5 8 Sur 14 Sur 0 1015.1 -- 90
2020-11-11 14:00:00 22.3 10 Sur 14 Sudeste 0 1015.8 -- 89
2020-11-11 13:00:00 22.6 6 Sur 17 Sur 0 1016.1 -- 87
2020-11-11 12:00:00 22 10 Sur 15 Sur 0 1016.9 -- 89
2020-11-11 11:00:00 22.2 12 Sur 17 Sur 0 1017.1 -- 87
2020-11-11 10:00:00 22.3 0 Calma 9 Noroeste 0 1017.1 -- 84
2020-11-11 09:00:00 20.4 5 Noroeste 13 Noroeste 0 1017.1 -- 80
2020-11-11 08:00:00 19.5 7 Norte 14 Noroeste 0 1016.3 -- 83
2020-11-11 07:00:00 19.1 9 Noroeste 15 Noroeste 0 1016.3 -- 81
2020-11-11 06:00:00 19.3 6 Noroeste 14 Noroeste 0 1015.9 -- 77
2020-11-11 05:00:00 19.2 8 Noroeste 14 Norte 0 1015.5 -- 78
2020-11-11 04:00:00 19.1 7 Norte 16 Noroeste 0 1015.3 -- 80
2020-11-11 03:00:00 18.7 9 Noroeste 16 Norte 0 1015.6 -- 81
2020-11-11 02:00:00 19.1 9 Noroeste 15 Noroeste 0 1016.2 -- 83
2020-11-11 01:00:00 19.6 8 Noroeste 12 Noroeste 0 1017 -- 83
2020-11-11 00:00:00 20 6 Noroeste 13 Noroeste 0 1017.6 -- 83
2020-11-10 23:00:00 20.3 7 Noroeste 13 Noroeste 0 1017.9 -- 86
2020-11-10 22:00:00 20.6 7 Noroeste 12 Noroeste 0 1017.8 -- 87
2020-11-10 21:00:00 21.2 6 Noroeste 10 Noroeste 0 1017.6 -- 86
2020-11-10 20:00:00 22 3 Nordeste 10 Sudoeste 0 1017.4 -- 85
2020-11-10 19:00:00 22.2 4 Sur 15 Sur 0 1016.7 -- 84
2020-11-10 18:00:00 22.3 8 Sur 22 Sur 0 1016.1 -- 84
2020-11-10 17:00:00 22.8 10 Sur 30 Sur 0 1015.9 -- 83
2020-11-10 16:00:00 22.6 19 Sur 25 Sur 0 1016.1 -- 84
2020-11-10 15:00:00 22.7 14 Sur 27 Sur 0 1016.5 -- 84
2020-11-10 14:00:00 23.9 8 Sur 16 Este 0 1016.9 -- 77
2020-11-10 13:00:00 25.2 5 Sudeste 14 Sur 0 1017.4 -- 72
2020-11-10 12:00:00 24.4 4 Nordeste 16 Este 0 1018.3 -- 73
2020-11-10 11:00:00 23.6 6 Sudeste 19 Sur 0 1018.8 -- 76
2020-11-10 10:00:00 22.9 7 Sur 16 Nordeste 0 1018.9 -- 76
2020-11-10 09:00:00 21.7 11 Norte 29 Norte 0 1018.6 -- 81
2020-11-10 08:00:00 21.2 8 Norte 28 Norte 0 1018.2 -- 84
2020-11-10 07:00:00 21.1 11 Noroeste 24 Noroeste 0 1018.1 -- 86
2020-11-10 06:00:00 19.6 8 Norte 11 Noroeste 0 1018 -- 86
2020-11-10 05:00:00 19.7 5 Noroeste 9 Noroeste 0 1017.9 -- 85
2020-11-10 04:00:00 20.2 2 Noroeste 6 Noroeste 0 1017.6 -- 83
2020-11-10 03:00:00 21.1 0 Calma 18 Norte 0 1017.7 -- 80
2020-11-10 02:00:00 21.2 9 Norte 21 Noroeste 0 1017.6 -- 84
2020-11-10 01:00:00 21.4 9 Norte 22 Noroeste 0 1018.4 -- 83
2020-11-10 00:00:00 21.5 10 Norte 22 Norte 0 1019 -- 85
2020-11-09 23:00:00 21.6 14 Noroeste 27 Noroeste 0 1019.7 -- 87
2020-11-09 22:00:00 21.8 10 Noroeste 22 Noroeste 0 1020 -- 87
2020-11-09 21:00:00 21.7 5 Noroeste 17 Norte 0 1019.6 -- 87
2020-11-09 20:00:00 22.1 6 Noroeste 15 Noroeste 0 1019.4 -- 82
2020-11-09 19:00:00 22.2 7 Noroeste 15 Oeste 0 1019.1 -- 82
2020-11-09 18:00:00 22.3 8 Noroeste 23 Oeste 0 1018.8 -- 83
2020-11-09 17:00:00 23.4 10 Noroeste 32 Oeste 0 1018.7 -- 78
2020-11-09 16:00:00 23.8 12 Noroeste 32 Oeste 0 1018.7 -- 76
2020-11-09 15:00:00 23.4 14 Noroeste 30 Noroeste 0 1018.9 -- 78
2020-11-09 14:00:00 23.6 13 Noroeste 27 Oeste 0 1019.1 -- 77
2020-11-09 13:00:00 23.7 9 Nordeste 29 Oeste 0 1020 -- 77
2020-11-09 12:00:00 23.3 11 Noroeste 23 Noroeste 0 1020.8 -- 77
2020-11-09 11:00:00 23.5 8 Norte 26 Noroeste 0 1021.1 -- 75
2020-11-09 10:00:00 22.3 10 Noroeste 36 Noroeste 0 1021.1 -- 78
2020-11-09 09:00:00 22 8 Noroeste 23 Noroeste 0 1020.6 -- 77
2020-11-09 08:00:00 20.5 7 Norte 18 Nordeste 0 1019.9 -- 85
2020-11-09 07:00:00 20.4 7 Norte 31 Noroeste 0 1019.9 -- 86
2020-11-09 06:00:00 20.7 13 Norte 30 Norte 0 1019.5 -- 84
2020-11-09 05:00:00 20.5 8 Norte 25 Noroeste 0 1019.4 -- 86
2020-11-09 04:00:00 20.4 10 Noroeste 20 Noroeste 0 1019.7 -- 85
2020-11-09 03:00:00 19.9 9 Noroeste 17 Noroeste 0 1020.1 -- 86
2020-11-09 02:00:00 19.9 10 Noroeste 17 Noroeste 0 1020.3 -- 85
2020-11-09 01:00:00 20.2 9 Noroeste 15 Noroeste 0 1020.5 -- 83
2020-11-09 00:00:00 20.2 8 Noroeste 16 Noroeste 0 1020.8 -- 82
2020-11-08 23:00:00 20.3 9 Noroeste 17 Noroeste 0 1021.1 -- 80
2020-11-08 22:00:00 20.6 9 Noroeste 16 Noroeste 0 1021.1 -- 77
2020-11-08 21:00:00 20.4 9 Noroeste 16 Noroeste 0 1020.8 -- 80
2020-11-08 20:00:00 20.7 8 Noroeste 14 Noroeste 0 1020.3 -- 80
2020-11-08 19:00:00 21.2 8 Noroeste 18 Noroeste 0 1020 -- 79
2020-11-08 18:00:00 21.7 12 Norte 24 Nordeste 0 1019.5 -- 80
2020-11-08 17:00:00 22.1 10 Noroeste 28 Noroeste 0 1019.3 -- 76
2020-11-08 16:00:00 23.3 9 Noroeste 28 Noroeste 0 1019.2 -- 71
2020-11-08 15:00:00 23 13 Noroeste 28 Noroeste 0 1019.1 -- 74
2020-11-08 14:00:00 23.5 15 Noroeste 28 Noroeste 0 1019.3 -- 76
2020-11-08 13:00:00 23.8 12 Noroeste 33 Nordeste 0 1019.8 -- 73
2020-11-08 12:00:00 23.6 12 Nordeste 31 Nordeste 0 1020.3 -- 73
2020-11-08 11:00:00 23.4 12 Noroeste 27 Noroeste 0 1021.1 -- 70
2020-11-08 10:00:00 22.3 11 Noroeste 26 Noroeste 0 1020.9 -- 77
2020-11-08 09:00:00 21.5 8 Noroeste 18 Noroeste 0 1021 -- 80
2020-11-08 08:00:00 19.6 10 Noroeste 15 Noroeste 0 1020.3 -- 79
2020-11-08 07:00:00 18.6 9 Noroeste 14 Noroeste 0 1019.9 -- 82
2020-11-08 06:00:00 18.3 8 Noroeste 14 Noroeste 0 1019.6 -- 80
2020-11-08 05:00:00 18.3 10 Noroeste 15 Noroeste 0 1019.3 -- 80
2020-11-08 04:00:00 18.5 8 Noroeste 15 Noroeste 0 1019.5 -- 79
2020-11-08 03:00:00 18.8 7 Noroeste 15 Noroeste 0 1019.6 -- 79
2020-11-08 02:00:00 19.2 7 Noroeste 12 Norte 0 1019.9 -- 79
2020-11-08 01:00:00 20.3 6 Noroeste 12 Norte 0 1020 -- 77
2020-11-08 00:00:00 20 8 Norte 15 Noroeste 0 1020.1 -- 77
2020-11-07 23:00:00 19.9 8 Noroeste 14 Noroeste 0 1020.2 -- 77
2020-11-07 22:00:00 20.2 8 Noroeste 13 Noroeste 0 1020.1 -- 76
2020-11-07 21:00:00 21 4 Noroeste 12 Sur 0 1019.8 -- 77
2020-11-07 20:00:00 22 6 Sur 15 Sudoeste 0 1019.4 -- 74
2020-11-07 19:00:00 22.4 9 Oeste 16 Sudoeste 0 1018.6 -- 69
2020-11-07 18:00:00 22.9 4 Sur 10 Sur 0 1018.3 -- 71
2020-11-07 17:00:00 23.4 4 Sudeste 15 Este 0 1018 -- 66
2020-11-07 16:00:00 24.2 5 Este 14 Este 0 1017.9 -- 68
2020-11-07 15:00:00 24.4 5 Sudeste 19 Sur 0 1018 -- 71
2020-11-07 14:00:00 23.1 10 Sur 19 Sur 0 1018.2 -- 74
2020-11-07 13:00:00 23.2 10 Sur 16 Sur 0 1019.1 -- 72
2020-11-07 12:00:00 23.3 8 Sur 12 Sudeste 0 1019.6 -- 77
2020-11-07 11:00:00 23.9 4 Este 10 Este 0 1019.8 -- 75
2020-11-07 10:00:00 23.5 3 Este 11 Noroeste 0 1019.6 -- 76
2020-11-07 09:00:00 20.3 7 Noroeste 15 Noroeste 0 1019 -- 74
2020-11-07 08:00:00 18 10 Noroeste 20 Noroeste 0 1018.2 -- 81
2020-11-07 07:00:00 17.9 9 Noroeste 17 Noroeste 0 1017.3 -- 80
2020-11-07 06:00:00 17.7 11 Noroeste 18 Noroeste 0 1016.7 -- 80
2020-11-07 05:00:00 17.9 9 Noroeste 17 Noroeste 0 1016.5 -- 80
2020-11-07 04:00:00 18 9 Noroeste 17 Noroeste 0 1016.6 -- 80
2020-11-07 03:00:00 18.3 9 Noroeste 16 Noroeste 0 1016.3 -- 80
2020-11-07 02:00:00 18.3 8 Noroeste 15 Noroeste 0 1016.2 -- 81
2020-11-07 01:00:00 18.7 8 Noroeste 15 Norte 0 1016.1 -- 85
2020-11-07 00:00:00 19.3 9 Noroeste 18 Noroeste 0 1016 -- 83
2020-11-06 23:00:00 19.6 10 Noroeste 17 Noroeste 0 1016.1 -- 80
2020-11-06 22:00:00 20 9 Norte 14 Norte 0 1015.7 -- 78
2020-11-06 21:00:00 20.6 8 Noroeste 14 Noroeste 0 1015.1 -- 76
2020-11-06 20:00:00 22 5 Sudoeste 18 Sudoeste 0 1014.2 -- 73
2020-11-06 19:00:00 22.4 6 Sudoeste 15 Norte 0 1013.3 -- 71
2020-11-06 18:00:00 22.8 6 Norte 19 Sudeste 0 1012.6 -- 68
2020-11-06 17:00:00 23.5 6 Sudeste 15 Sudeste 0 1012.2 -- 77
2020-11-06 16:00:00 23.6 6 Sudeste 19 Este 0 1011.7 -- 75
2020-11-06 15:00:00 23.7 9 Este 25 Este 0 1011.3 -- 75
2020-11-06 14:00:00 24 11 Este 27 Este 0 1011.2 -- 76
2020-11-06 13:00:00 24 10 Este 19 Este 0 1011.4 -- 75
2020-11-06 12:00:00 23.8 10 Este 30 Nordeste 0 1011.8 -- 74
2020-11-06 11:00:00 23.9 7 Nordeste 17 Nordeste 0 1011.8 -- 73
2020-11-06 10:00:00 23 5 Nordeste 13 Este 0 1011.4 3 77
2020-11-06 09:00:00 21.6 4 Noroeste 13 Noroeste 0 1010.5 -- 85
2020-11-06 08:00:00 20.6 8 Sudoeste 22 Sudoeste 0 1009.5 -- 91
2020-11-06 07:00:00 20.3 7 Oeste 26 Sudoeste 0.1 1008.4 -- 88
2020-11-06 06:00:00 20.5 4 Oeste 29 Sudoeste 0 1008 -- 86
2020-11-06 05:00:00 20.8 10 Sudoeste 29 Sudoeste 0 1007.8 -- 84
2020-11-06 04:00:00 20.5 15 Sudoeste 31 Sudoeste 0 1008.4 -- 84
2020-11-06 03:00:00 20.7 4 Oeste 23 Sudoeste 0 1008 -- 81
2020-11-06 02:00:00 20.9 6 Sudoeste 29 Sudoeste 0 1007.8 -- 80
2020-11-06 01:00:00 20.9 11 Sudoeste 30 Sudoeste 0 1008.2 -- 80
2020-11-06 00:00:00 21 6 Sudoeste 21 Oeste 0 1008.3 -- 76
2020-11-05 23:00:00 20.8 6 Noroeste 22 Sudoeste 0 1008.5 -- 77
2020-11-05 22:00:00 21.4 13 Oeste 23 Oeste 0 1008.3 -- 69
2020-11-05 21:00:00 20 6 Noroeste 14 Noroeste 0 1008.2 -- 82
2020-11-05 20:00:00 20.6 3 Norte 14 Sur 0 1007.8 -- 78
2020-11-05 19:00:00 21.5 5 Oeste 12 Nordeste 0 1007.3 -- 74
2020-11-05 18:00:00 22.1 3 Noroeste 21 Este 0 1007 -- 71
2020-11-05 17:00:00 22.1 7 Norte 22 Nordeste 0 1006.5 -- 74
2020-11-05 16:00:00 23 8 Este 25 Nordeste 0 1006.6 -- 72
2020-11-05 15:00:00 22.4 5 Nordeste 20 Nordeste 0 1006.9 -- 76
2020-11-05 14:00:00 22.9 8 Nordeste 24 Nordeste 0 1007.2 -- 77
2020-11-05 13:00:00 23 9 Este 22 Nordeste 0 1007.8 -- 73
2020-11-05 12:00:00 23.1 0 Calma 22 Nordeste 0 1008.8 -- 70
2020-11-05 11:00:00 22 4 Este 20 Nordeste 0 1009.6 -- 77
2020-11-05 10:00:00 22.2 6 Norte 15 Norte 0 1009.7 -- 70
2020-11-05 09:00:00 20.4 6 Noroeste 13 Noroeste 0 1009.7 -- 79
2020-11-05 08:00:00 17.8 7 Noroeste 16 Noroeste 0 1009.4 -- 89
2020-11-05 07:00:00 17.9 10 Noroeste 21 Noroeste 0 1009.3 -- 87
2020-11-05 06:00:00 18.1 11 Noroeste 18 Noroeste 0 1009.6 -- 89
2020-11-05 05:00:00 18.5 10 Noroeste 16 Noroeste 0 1009.8 -- 86
2020-11-05 04:00:00 18.5 9 Noroeste 17 Noroeste 0 1010.3 -- 86
2020-11-05 03:00:00 19.7 12 Noroeste 23 Noroeste 0 1010.4 -- 86
2020-11-05 02:00:00 19.9 13 Norte 27 Norte 0 1011.4 -- 87
2020-11-05 01:00:00 19.9 14 Norte 37 Noroeste 0 1012.1 -- 90
2020-11-05 00:00:00 19.9 17 Noroeste 32 Noroeste 0 1012.9 -- 91
2020-11-04 23:00:00 19.9 13 Noroeste 41 Noroeste 0 1013.5 -- 92
2020-11-04 22:00:00 20.2 22 Noroeste 47 Noroeste 0 1014 -- 89
2020-11-04 21:00:00 20.1 21 Noroeste 44 Noroeste 0 1014 -- 92
2020-11-04 20:00:00 20.3 19 Noroeste 46 Norte 0 1013.9 -- 91
2020-11-04 19:00:00 20 19 Norte 47 Nordeste 0 1014.3 -- 93
2020-11-04 18:00:00 20.3 16 Noroeste 49 Noroeste 0 1014.4 -- 92
2020-11-04 17:00:00 20.9 14 Norte 49 Norte 0 1014.3 -- 92
2020-11-04 16:00:00 21.5 15 Norte 45 Noroeste 0 1014.4 -- 92
2020-11-04 15:00:00 21.6 14 Norte 44 Norte 0 1015 -- 91
2020-11-04 14:00:00 22 17 Noroeste 54 Nordeste 0 1015.8 -- 89
2020-11-04 13:00:00 22 19 Norte 42 Nordeste 0 1016.6 -- 91
2020-11-04 12:00:00 22.6 14 Noroeste 45 Norte 0 1016.7 -- 89
2020-11-04 11:00:00 22.7 21 Noroeste 46 Norte 0 1017.5 -- 89
2020-11-04 10:00:00 22 18 Norte 38 Norte 0 1018 1.1 92
2020-11-04 09:00:00 22.8 10 Noroeste 28 Noroeste 0 1017.6 -- 79
2020-11-04 08:00:00 22.3 15 Noroeste 32 Noroeste 0 1017 -- 82
2020-11-04 07:00:00 21.8 15 Noroeste 35 Noroeste 0 1016.9 -- 86
2020-11-04 06:00:00 22 16 Noroeste 36 Noroeste 0 1017.2 -- 85
2020-11-04 05:00:00 22.1 14 Noroeste 32 Oeste 0 1017.4 -- 82
2020-11-04 04:00:00 22 12 Noroeste 32 Oeste 0 1017.7 -- 80
2020-11-04 03:00:00 22 15 Noroeste 36 Oeste 0 1018.1 -- 82
2020-11-04 02:00:00 22.3 17 Noroeste 53 Norte 0 1018.3 -- 81
2020-11-04 01:00:00 22.3 16 Noroeste 34 Noroeste 0 1018.4 -- 83
2020-11-04 00:00:00 22.3 14 Noroeste 40 Noroeste 0 1018.4 -- 83
2020-11-03 23:00:00 22.2 18 Noroeste 46 Noroeste 0 1018.2 -- 85
2020-11-03 22:00:00 22.3 18 Noroeste 50 Norte 0 1018.9 -- 85
2020-11-03 21:00:00 22.4 22 Noroeste 46 Noroeste 0 1018.6 -- 85
2020-11-03 20:00:00 22.4 24 Norte 57 Noroeste 0 1018.3 -- 86
2020-11-03 19:00:00 22.6 19 Norte 53 Noroeste 0 1018.2 -- 86
2020-11-03 18:00:00 22.7 19 Noroeste 45 Norte 0 1018.8 -- 86
2020-11-03 17:00:00 23.6 14 Noroeste 46 Norte 0 1019.2 -- 82
2020-11-03 16:00:00 23.9 18 Noroeste 47 Noroeste 0 1019.4 -- 77
2020-11-03 15:00:00 24.2 17 Noroeste 47 Noroeste 0 1019.3 -- 78
2020-11-03 14:00:00 24 15 Norte 47 Noroeste 0 1019.7 -- 80
2020-11-03 13:00:00 23.6 20 Norte 48 Noroeste 0 1019.8 -- 82
2020-11-03 12:00:00 23.9 14 Noroeste 45 Noroeste 0 1020.3 -- 77
2020-11-03 11:00:00 24.6 16 Noroeste 46 Noroeste 0 1020.8 -- 74
2020-11-03 10:00:00 23.6 21 Noroeste 44 Noroeste 0 1020.2 -- 80
2020-11-03 09:00:00 23.2 16 Noroeste 48 Noroeste 0 1020.2 -- 81
2020-11-03 08:00:00 22.4 17 Norte 53 Norte 0 1019.1 -- 85
2020-11-03 07:00:00 22.1 22 Norte 48 Norte 0 1018.5 -- 88
2020-11-03 06:00:00 22.2 23 Norte 57 Noroeste 0 1018.7 -- 87
2020-11-03 05:00:00 22.4 20 Noroeste 52 Norte 0 1018.4 -- 86
2020-11-03 04:00:00 22.5 23 Norte 48 Nordeste 0 1018.5 -- 85
2020-11-03 03:00:00 22.3 24 Norte 51 Norte 0 1018.6 -- 85
2020-11-03 02:00:00 22.1 22 Norte 47 Norte 0 1018.9 -- 88
2020-11-03 01:00:00 22.3 17 Norte 42 Norte 0 1019.7 -- 89
2020-11-03 00:00:00 22.3 20 Norte 46 Noroeste 0 1019.9 -- 87
2020-11-02 23:00:00 22.6 19 Norte 43 Noroeste 0 1019.8 -- 87
2020-11-02 22:00:00 22.8 17 Norte 48 Norte 0 1019.8 -- 83
2020-11-02 21:00:00 22.9 19 Noroeste 47 Noroeste 0 1019.5 -- 84
2020-11-02 20:00:00 23.1 20 Norte 42 Norte 0 1018.9 -- 80
2020-11-02 19:00:00 23.5 15 Norte 57 Norte 0 1018.6 -- 74
2020-11-02 18:00:00 24 20 Norte 50 Oeste 0 1018 -- 69
2020-11-02 17:00:00 25.3 16 Noroeste 63 Norte 0 1018.2 -- 60
2020-11-02 16:00:00 25.5 26 Norte 53 Norte 0 1017.8 -- 53
2020-11-02 15:00:00 27 20 Noroeste 48 Noroeste 0 1018 -- 49
2020-11-02 14:00:00 27.1 15 Norte 48 Norte 0 1018.2 -- 50
2020-11-02 13:00:00 27.2 17 Norte 57 Nordeste 0 1019 -- 54
2020-11-02 12:00:00 26.2 24 Norte 55 Norte 0 1019.7 -- 58
2020-11-02 11:00:00 26.7 19 Norte 55 Norte 0 1019.5 -- 51
2020-11-02 10:00:00 26.4 22 Norte 55 Norte 0 1018.9 -- 49
2020-11-02 09:00:00 26.8 16 Noroeste 48 Norte 0 1018.2 -- 45
2020-11-02 08:00:00 25.7 16 Norte 45 Norte 0 1017.1 -- 49
2020-11-02 07:00:00 25.1 16 Noroeste 43 Nordeste 0 1017 -- 50
2020-11-02 06:00:00 25.7 13 Noroeste 42 Noroeste 0 1016.8 -- 45
2020-11-02 05:00:00 25.5 16 Noroeste 38 Noroeste 0 1016.6 -- 48
2020-11-02 04:00:00 25.9 14 Noroeste 39 Noroeste 0 1016.8 -- 47
2020-11-02 03:00:00 25.7 19 Noroeste 41 Norte 0 1017 -- 48
2020-11-02 02:00:00 26.1 16 Noroeste 39 Noroeste 0 1017.3 -- 47
2020-11-02 01:00:00 26.6 14 Noroeste 38 Noroeste 0 1017.6 -- 44
2020-11-02 00:00:00 27.5 16 Norte 32 Norte 0 1017.9 -- 41
2020-11-01 23:00:00 26.8 16 Noroeste 37 Noroeste 0 1018 -- 45
2020-11-01 22:00:00 27.3 12 Noroeste 31 Noroeste 0 1018.3 -- 43
2020-11-01 21:00:00 28.4 10 Noroeste 27 Nordeste 0 1018.2 -- 40
2020-11-01 20:00:00 25.7 0 Calma 7 Oeste 0 1017.9 -- 58
2020-11-01 19:00:00 25.9 3 Sudoeste 7 Oeste 0 1017.4 -- 60
2020-11-01 18:00:00 27.4 3 Este 18 Norte 0 1017.4 -- 57
2020-11-01 17:00:00 27.3 -- -- 11 Norte 0 1017.3 -- 70
2020-11-01 16:00:00 29.5 -- -- 14 Nordeste 0 1017.3 -- 49
2020-11-01 15:00:00 28.7 6 Este 15 Este 0 1017.2 -- 60
2020-11-01 14:00:00 27.7 6 Sudeste 12 Sudeste 0 1017.5 -- 73
2020-11-01 13:00:00 28.2 6 Este 17 Este 0 1018.4 -- 60
2020-11-01 12:00:00 28.1 6 Este 10 Sudeste 0 1019.2 -- 62
2020-11-01 11:00:00 28.2 4 Sudeste 16 Este 0 1019.7 -- 57
2020-11-01 10:00:00 27.4 4 Sudeste 9 Sudeste 0 1019.3 -- 65
2020-11-01 09:00:00 25.3 0 Calma 8 Nordeste 0 1018.8 -- 62
2020-11-01 08:00:00 23.1 3 Oeste 12 Noroeste 0 1018.2 -- 60
2020-11-01 07:00:00 22.2 5 Norte 19 Noroeste 0 1017.6 -- 63
2020-11-01 06:00:00 23.5 0 Calma 8 Nordeste 0 1017.3 -- 81
2020-11-01 05:00:00 24.7 0 Calma 11 Noroeste 0 1017.2 -- 55
2020-11-01 04:00:00 25 6 Noroeste 15 Noroeste 0 1017.5 -- 41
2020-11-01 03:00:00 25.7 9 Noroeste 21 Noroeste 0 1017.9 -- 40
2020-11-01 02:00:00 26.2 9 Norte 39 Noroeste 0 1018.2 -- 41
2020-11-01 01:00:00 23.4 12 Noroeste 21 Noroeste 0 1018.4 -- 47
2020-11-01 00:00:00 23.5 0 Calma 10 Norte 0 1019 -- 53
2020-10-31 23:00:00 23.5 2 Norte 11 Noroeste 0 1019.1 -- 49
2020-10-31 22:00:00 24.4 3 Noroeste 10 Noroeste 0 1018.8 -- 49
2020-10-31 21:00:00 24.7 5 Noroeste 8 Noroeste 0 1018.5 -- 51
2020-10-31 20:00:00 25.2 0 Calma 5 Noroeste 0 1017.7 -- 53
2020-10-31 19:00:00 26.3 0 Calma 9 Este 0 1017.7 -- 56
2020-10-31 18:00:00 27.8 4 Oeste 8 Sudoeste 0 1017.7 -- 51
2020-10-31 17:00:00 28 5 Este 11 Norte 0 1018.1 -- 51
2020-10-31 16:00:00 30.1 3 Este 16 Norte 0 1018 -- 41
2020-10-31 15:00:00 29.3 2 Sur 18 Sur 0 1018.1 -- 41
2020-10-31 14:00:00 29.1 8 Sur 24 Oeste 0 1018.7 -- 39
2020-10-31 13:00:00 28.7 8 Sur 23 Sur 0 1019.3 -- 41
2020-10-31 12:00:00 29.3 10 Sur 26 Sudeste 0 1019.5 -- 39
2020-10-31 11:00:00 30.1 7 Sur 24 Sur 0 1019.6 -- 34
2020-10-31 10:00:00 30.1 4 Sur 16 Oeste 0 1019.3 -- 35
2020-10-31 09:00:00 27.9 6 Noroeste 15 Noroeste 0 1018.7 -- 39
2020-10-31 08:00:00 25.6 6 Noroeste 19 Noroeste 0 1017.9 -- 43
2020-10-31 07:00:00 24.3 9 Noroeste 18 Este 0 1017.2 -- 50
2020-10-31 06:00:00 22.2 6 Noroeste 19 Nordeste 0 1016.6 -- 63
2020-10-31 05:00:00 20.6 2 Norte 13 Noroeste 0 1016.3 -- 86
2020-10-31 04:00:00 20 5 Noroeste 12 Noroeste 0 1016.3 -- 89
2020-10-31 03:00:00 20.2 3 Noroeste 8 Noroeste 0 1016.5 -- 88
2020-10-31 02:00:00 20.7 5 Norte 14 Oeste 0 1016.5 -- 85
2020-10-31 01:00:00 20.8 2 Oeste 8 Oeste 0 1016.8 -- 87
2020-10-31 00:00:00 21.6 3 Oeste 6 Nordeste 0 1017 -- 88
2020-10-30 23:00:00 22.4 6 Sur 19 Noroeste 0 1017.3 -- 89
2020-10-30 22:00:00 22.3 14 Noroeste 35 Noroeste 0 1016.9 -- 85
2020-10-30 21:00:00 22.4 4 Oeste 22 Oeste 0 1017.1 -- 88
2020-10-30 20:00:00 22.9 5 Nordeste 24 Norte 0 1016.6 -- 83
2020-10-30 19:00:00 23.1 12 Norte 32 Norte 0 1016.2 -- 81
2020-10-30 18:00:00 23.5 18 Norte 37 Norte 0 1015.5 -- 79
2020-10-30 17:00:00 24.1 19 Norte 39 Nordeste 0 1015.1 -- 78
2020-10-30 16:00:00 24.7 12 Norte 38 Nordeste 0 1015.3 -- 73
2020-10-30 15:00:00 25 13 Norte 43 Norte 0 1015.2 -- 76
2020-10-30 14:00:00 24.3 15 Norte 47 Nordeste 0 1015.7 -- 74
2020-10-30 13:00:00 24.7 13 Norte 43 Noroeste 0 1016.6 -- 73
2020-10-30 12:00:00 23.9 17 Noroeste 39 Noroeste 0 1017.1 -- 77
2020-10-30 11:00:00 24.5 10 Noroeste 31 Noroeste 0 1017.4 -- 78
2020-10-30 10:00:00 23.6 12 Norte 34 Norte 0 1017.6 -- 81
2020-10-30 09:00:00 22.9 12 Norte 28 Noroeste 0 1017.3 -- 80
2020-10-30 08:00:00 22.2 12 Norte 37 Norte 0 1016.8 -- 85
2020-10-30 07:00:00 22 15 Norte 37 Noroeste 0 1016.2 -- 87
2020-10-30 06:00:00 21.9 15 Norte 33 Noroeste 0 1016 -- 87
2020-10-30 05:00:00 22 16 Norte 40 Noroeste 0 1015.8 -- 87
2020-10-30 04:00:00 21.8 15 Norte 33 Norte 0 1015.9 -- 89
2020-10-30 03:00:00 21.8 15 Noroeste 35 Noroeste 0 1016.2 -- 87
2020-10-30 02:00:00 21.8 13 Norte 31 Noroeste 0 1016.5 -- 86
2020-10-30 01:00:00 21.7 9 Noroeste 33 Noroeste 0 1016.8 -- 86
2020-10-30 00:00:00 22 18 Noroeste 43 Noroeste 0 1017 -- 83
2020-10-29 23:00:00 22 15 Norte 39 Noroeste 0 1017.3 -- 85
2020-10-29 22:00:00 22 17 Noroeste 40 Noroeste 0 1017.3 -- 83
2020-10-29 21:00:00 22.1 18 Noroeste 41 Noroeste 0 1017.1 -- 82
2020-10-29 20:00:00 22 16 Norte 37 Noroeste 0 1016.8 -- 82
2020-10-29 19:00:00 22 9 Norte 28 Norte 0 1016.7 -- 77
2020-10-29 18:00:00 22.3 12 Norte 36 Oeste 0 1016.5 -- 77
2020-10-29 17:00:00 22.7 12 Noroeste 35 Nordeste 0 1016.4 -- 74
2020-10-29 16:00:00 23.7 11 Noroeste 31 Oeste 0 1016.4 -- 71
2020-10-29 15:00:00 24.2 10 Noroeste 30 Noroeste 0 1016.4 -- 66
2020-10-29 14:00:00 24 11 Noroeste 32 Nordeste 0 1017 -- 68
2020-10-29 13:00:00 24.6 8 Norte 34 Noroeste 0 1017.4 -- 64
2020-10-29 12:00:00 24.1 11 Norte 32 Noroeste 0 1018.8 -- 68
2020-10-29 11:00:00 22.6 14 Noroeste 32 Oeste 0 1019.1 -- 70
2020-10-29 10:00:00 22.4 11 Noroeste 32 Norte 0 1019 -- 74
2020-10-29 09:00:00 22.2 12 Noroeste 39 Norte 0 1018.7 -- 71
2020-10-29 08:00:00 21.8 10 Norte 32 Noroeste 0 1018 -- 73
2020-10-29 07:00:00 21.6 9 Norte 26 Noroeste 0 1017.6 -- 71
2020-10-29 06:00:00 21.6 8 Norte 34 Norte 0 1017.5 -- 72
2020-10-29 05:00:00 21.6 8 Norte 27 Nordeste 0 1017.3 -- 74
2020-10-29 04:00:00 21.6 12 Noroeste 31 Noroeste 0 1017.3 -- 74
2020-10-29 03:00:00 21.5 9 Noroeste 30 Noroeste 0 1017.7 -- 73
2020-10-29 02:00:00 21.5 12 Noroeste 33 Noroeste 0 1017.9 -- 75
2020-10-29 01:00:00 21.5 12 Norte 28 Norte 0 1018.3 -- 78
2020-10-29 00:00:00 21.3 12 Norte 39 Nordeste 0 1018.7 -- 82
2020-10-28 23:00:00 21.4 10 Norte 38 Noroeste 0 1019 -- 83
2020-10-28 22:00:00 21.8 12 Norte 44 Nordeste 0 1019 -- 76
2020-10-28 21:00:00 21.8 15 Norte 40 Nordeste 0 1018.6 -- 74
2020-10-28 20:00:00 21.6 14 Norte 36 Noroeste 0 1018.4 -- 77
2020-10-28 19:00:00 21.7 10 Norte 38 Norte 0 1018.2 -- 80
2020-10-28 18:00:00 21.9 11 Norte 31 Nordeste 0 1018 -- 76
2020-10-28 17:00:00 22.2 13 Norte 33 Norte 0 1017.7 -- 76
2020-10-28 16:00:00 22 14 Norte 42 Norte 0 1017.6 -- 78
2020-10-28 15:00:00 23.3 10 Norte 31 Nordeste 0 1018.2 -- 72
2020-10-28 14:00:00 23.6 10 Noroeste 37 Norte 0 1019 -- 69
2020-10-28 13:00:00 24.1 13 Norte 40 Norte 0 1019.2 -- 62
2020-10-28 12:00:00 23.2 13 Noroeste 45 Noroeste 0 1020 -- 67
2020-10-28 11:00:00 23.3 11 Norte 35 Noroeste 0 1020 -- 68
2020-10-28 10:00:00 23 9 Norte 31 Norte 0 1019.9 -- 68
2020-10-28 09:00:00 22.7 8 Norte 30 Noroeste 0 1019.4 -- 72
2020-10-28 08:00:00 21.8 8 Noroeste 38 Oeste 0 1018.7 -- 77
2020-10-28 07:00:00 21.6 9 Noroeste 37 Norte 0 1017.9 -- 80
2020-10-28 06:00:00 21.9 13 Noroeste 44 Noroeste 0 1017.6 -- 78
2020-10-28 05:00:00 21.3 9 Noroeste 32 Norte 0 1017.7 -- 85
2020-10-28 04:00:00 21.3 13 Norte 35 Norte 0 1017.6 -- 85
2020-10-28 03:00:00 21.6 13 Norte 27 Noroeste 0 1017.9 -- 80
2020-10-28 02:00:00 21.7 11 Norte 25 Noroeste 0 1018.3 -- 83
2020-10-28 01:00:00 21.7 8 Noroeste 25 Noroeste 0 1018.7 -- 77
2020-10-28 00:00:00 21.8 14 Noroeste 35 Oeste 0 1019.5 -- 79
2020-10-27 23:00:00 21.9 11 Noroeste 27 Oeste 0 1019.7 -- 80
2020-10-27 22:00:00 22.2 13 Noroeste 33 Noroeste 0 1019.6 -- 79
2020-10-27 21:00:00 22.1 13 Noroeste 35 Noroeste 0 1019.2 -- 83
2020-10-27 20:00:00 22.3 13 Noroeste 31 Noroeste 0 1018.8 -- 82
2020-10-27 19:00:00 22.3 12 Noroeste 32 Noroeste 0 1018.2 -- 81
2020-10-27 18:00:00 22.7 12 Noroeste 38 Norte 0 1017.8 -- 76
2020-10-27 17:00:00 23.7 13 Noroeste 33 Oeste 0 1017.7 -- 72
2020-10-27 16:00:00 24.4 10 Norte 27 Norte 0 1017.5 -- 68
2020-10-27 15:00:00 24.5 12 Noroeste 39 Noroeste 0 1017.8 -- 66
2020-10-27 14:00:00 24.8 14 Norte 34 Norte 0 1018.1 -- 68
2020-10-27 13:00:00 23.7 14 Norte 44 Noroeste 0 1019.1 -- 78
2020-10-27 12:00:00 24 15 Noroeste 35 Noroeste 0 1019.5 -- 80
2020-10-27 11:00:00 24.3 15 Noroeste 33 Noroeste 0 1020.2 -- 72
2020-10-27 10:00:00 23.5 15 Noroeste 35 Oeste 0 1020.4 -- 75
2020-10-27 09:00:00 23 12 Noroeste 36 Noroeste 0 1019.9 -- 74
2020-10-27 08:00:00 21.8 13 Norte 41 Norte 0 1019.2 -- 79
2020-10-27 07:00:00 21.5 12 Norte 35 Norte 0 1018.6 -- 82
2020-10-27 06:00:00 21.7 18 Norte 33 Norte 0 1018.7 -- 84
2020-10-27 05:00:00 21.8 13 Noroeste 37 Noroeste 0 1018.6 -- 81
2020-10-27 04:00:00 21.7 10 Norte 27 Norte 0 1018.8 -- 80
2020-10-27 03:00:00 21.8 12 Norte 33 Noroeste 0 1019.1 -- 80
2020-10-27 02:00:00 22 12 Norte 30 Noroeste 0 1019.2 -- 79
2020-10-27 01:00:00 22 9 Noroeste 23 Noroeste 0 1019.6 -- 80
2020-10-27 00:00:00 21.7 10 Noroeste 29 Norte 0 1020.3 -- 81
2020-10-26 23:00:00 21.9 14 Noroeste 37 Nordeste 0 1020.6 -- 80
2020-10-26 22:00:00 22.1 15 Noroeste 37 Norte 0 1020.6 -- 78
2020-10-26 21:00:00 22 13 Noroeste 41 Nordeste 0 1020.2 -- 78
2020-10-26 20:00:00 22.2 15 Noroeste 37 Noroeste 0 1019.9 -- 79
2020-10-26 19:00:00 22.3 13 Noroeste 43 Oeste 0 1019.3 -- 80
2020-10-26 18:00:00 22.5 19 Noroeste 39 Oeste 0 1019 -- 78
2020-10-26 17:00:00 23.5 17 Noroeste 42 Oeste 0 1018.8 -- 73
2020-10-26 16:00:00 24.1 14 Noroeste 39 Noroeste 0 1019 -- 71
2020-10-26 15:00:00 24.5 15 Norte 45 Norte 0 1019.2 -- 69
2020-10-26 14:00:00 24.2 18 Norte 41 Nordeste 0 1019.5 -- 69
2020-10-26 13:00:00 24.2 15 Noroeste 44 Noroeste 0 1020.1 -- 68
2020-10-26 12:00:00 23.6 16 Noroeste 55 Noroeste 0 1020.8 -- 68
2020-10-26 11:00:00 23.5 17 Noroeste 40 Oeste 0 1021.2 -- 70
2020-10-26 10:00:00 22.9 17 Noroeste 45 Norte 0 1021.2 -- 73
2020-10-26 09:00:00 22.2 18 Noroeste 46 Noroeste 0 1020.6 -- 77
2020-10-26 08:00:00 21.4 15 Noroeste 52 Nordeste 0 1020.2 -- 79
2020-10-26 07:00:00 21.2 18 Norte 43 Norte 0 1019.3 -- 80
2020-10-26 06:00:00 21.2 13 Noroeste 37 Noroeste 0 1020 -- 79
2020-10-26 05:00:00 21.2 15 Noroeste 38 Oeste 0 1019.3 -- 80
2020-10-26 04:00:00 21.3 17 Noroeste 44 Noroeste 0 1019.4 -- 80
2020-10-26 03:00:00 21.4 17 Noroeste 42 Norte 0 1019.7 -- 78
2020-10-26 02:00:00 21.4 13 Noroeste 42 Norte 0 1020.1 -- 78
2020-10-26 01:00:00 21.5 10 Noroeste 33 Oeste 0 1021.1 -- 78
2020-10-26 00:00:00 21.5 14 Noroeste 33 Noroeste 0 1021.3 -- 77